sensor_id;sensor_type;location;lat;lon;timestamp;P1;durP1;ratioP1;P2;durP2;ratioP2
16099;SDS011;8154;50.830;12.082;2022-08-19T00:01:14;7.25;;;6.60;;
16099;SDS011;8154;50.830;12.082;2022-08-19T00:03:59;7.13;;;6.53;;
16099;SDS011;8154;50.830;12.082;2022-08-19T00:06:46;7.15;;;6.55;;
16099;SDS011;8154;50.830;12.082;2022-08-19T00:09:31;6.95;;;6.35;;
16099;SDS011;8154;50.830;12.082;2022-08-19T00:12:15;6.70;;;6.20;;
16099;SDS011;8154;50.830;12.082;2022-08-19T00:15:00;6.80;;;6.20;;
16099;SDS011;8154;50.830;12.082;2022-08-19T00:17:44;6.95;;;6.28;;
16099;SDS011;8154;50.830;12.082;2022-08-19T00:20:29;6.60;;;6.10;;
16099;SDS011;8154;50.830;12.082;2022-08-19T00:23:13;6.82;;;6.32;;
16099;SDS011;8154;50.830;12.082;2022-08-19T00:25:58;6.72;;;6.13;;
16099;SDS011;8154;50.830;12.082;2022-08-19T00:28:42;7.43;;;6.80;;
16099;SDS011;8154;50.830;12.082;2022-08-19T00:31:27;6.80;;;6.30;;
16099;SDS011;8154;50.830;12.082;2022-08-19T00:34:13;7.40;;;6.70;;
16099;SDS011;8154;50.830;12.082;2022-08-19T00:36:58;6.82;;;6.20;;
16099;SDS011;8154;50.830;12.082;2022-08-19T00:39:43;6.50;;;6.00;;
16099;SDS011;8154;50.830;12.082;2022-08-19T00:42:27;6.75;;;6.20;;
16099;SDS011;8154;50.830;12.082;2022-08-19T00:45:16;6.32;;;5.82;;
16099;SDS011;8154;50.830;12.082;2022-08-19T00:48:03;6.45;;;5.95;;
16099;SDS011;8154;50.830;12.082;2022-08-19T00:50:50;6.47;;;5.97;;
16099;SDS011;8154;50.830;12.082;2022-08-19T00:53:36;6.90;;;6.18;;
16099;SDS011;8154;50.830;12.082;2022-08-19T00:56:21;6.40;;;5.80;;
16099;SDS011;8154;50.830;12.082;2022-08-19T00:59:05;6.50;;;6.00;;
16099;SDS011;8154;50.830;12.082;2022-08-19T01:01:52;6.40;;;5.90;;
16099;SDS011;8154;50.830;12.082;2022-08-19T01:04:37;6.45;;;5.95;;
16099;SDS011;8154;50.830;12.082;2022-08-19T01:07:22;6.65;;;6.15;;
16099;SDS011;8154;50.830;12.082;2022-08-19T01:10:08;6.55;;;6.00;;
16099;SDS011;8154;50.830;12.082;2022-08-19T01:12:55;6.63;;;6.10;;
16099;SDS011;8154;50.830;12.082;2022-08-19T01:15:42;6.90;;;6.30;;
16099;SDS011;8154;50.830;12.082;2022-08-19T01:18:32;6.53;;;6.03;;
16099;SDS011;8154;50.830;12.082;2022-08-19T01:24:19;7.00;;;6.50;;
16099;SDS011;8154;50.830;12.082;2022-08-19T01:27:04;7.13;;;6.60;;
16099;SDS011;8154;50.830;12.082;2022-08-19T01:29:49;6.95;;;6.38;;
16099;SDS011;8154;50.830;12.082;2022-08-19T01:32:33;6.70;;;6.15;;
16099;SDS011;8154;50.830;12.082;2022-08-19T01:35:18;6.18;;;5.68;;
16099;SDS011;8154;50.830;12.082;2022-08-19T01:38:04;6.85;;;6.28;;
16099;SDS011;8154;50.830;12.082;2022-08-19T01:40:51;6.45;;;5.95;;
16099;SDS011;8154;50.830;12.082;2022-08-19T01:43:36;6.38;;;5.88;;
16099;SDS011;8154;50.830;12.082;2022-08-19T01:46:21;6.28;;;5.78;;
16099;SDS011;8154;50.830;12.082;2022-08-19T01:49:06;6.70;;;6.20;;
16099;SDS011;8154;50.830;12.082;2022-08-19T01:51:52;6.30;;;5.80;;
16099;SDS011;8154;50.830;12.082;2022-08-19T01:54:37;6.57;;;5.97;;
16099;SDS011;8154;50.830;12.082;2022-08-19T01:57:22;5.95;;;5.55;;
16099;SDS011;8154;50.830;12.082;2022-08-19T02:00:07;6.32;;;5.75;;
16099;SDS011;8154;50.830;12.082;2022-08-19T02:02:55;6.18;;;5.70;;
16099;SDS011;8154;50.830;12.082;2022-08-19T02:05:41;6.90;;;6.30;;
16099;SDS011;8154;50.830;12.082;2022-08-19T02:08:26;5.97;;;5.57;;
16099;SDS011;8154;50.830;12.082;2022-08-19T02:11:17;6.47;;;5.97;;
16099;SDS011;8154;50.830;12.082;2022-08-19T02:14:05;6.55;;;5.95;;
16099;SDS011;8154;50.830;12.082;2022-08-19T02:16:51;6.55;;;6.05;;
16099;SDS011;8154;50.830;12.082;2022-08-19T02:19:35;6.50;;;6.00;;
16099;SDS011;8154;50.830;12.082;2022-08-19T02:22:19;6.90;;;6.40;;
16099;SDS011;8154;50.830;12.082;2022-08-19T02:25:04;6.70;;;6.20;;
16099;SDS011;8154;50.830;12.082;2022-08-19T02:27:49;7.03;;;6.50;;
16099;SDS011;8154;50.830;12.082;2022-08-19T02:30:33;6.82;;;6.30;;
16099;SDS011;8154;50.830;12.082;2022-08-19T02:33:17;6.30;;;5.82;;
16099;SDS011;8154;50.830;12.082;2022-08-19T02:36:03;6.68;;;6.10;;
16099;SDS011;8154;50.830;12.082;2022-08-19T02:38:48;7.15;;;6.65;;
16099;SDS011;8154;50.830;12.082;2022-08-19T02:41:34;6.80;;;6.20;;
16099;SDS011;8154;50.830;12.082;2022-08-19T02:44:18;7.13;;;6.63;;
16099;SDS011;8154;50.830;12.082;2022-08-19T02:47:02;6.85;;;6.28;;
16099;SDS011;8154;50.830;12.082;2022-08-19T02:49:47;6.80;;;6.30;;
16099;SDS011;8154;50.830;12.082;2022-08-19T02:52:34;6.97;;;6.38;;
16099;SDS011;8154;50.830;12.082;2022-08-19T02:55:19;7.95;;;7.25;;
16099;SDS011;8154;50.830;12.082;2022-08-19T02:58:04;7.63;;;7.03;;
16099;SDS011;8154;50.830;12.082;2022-08-19T03:00:50;8.20;;;7.60;;
16099;SDS011;8154;50.830;12.082;2022-08-19T03:03:37;8.00;;;7.40;;
16099;SDS011;8154;50.830;12.082;2022-08-19T03:06:22;6.90;;;6.40;;
16099;SDS011;8154;50.830;12.082;2022-08-19T03:09:07;7.22;;;6.63;;
16099;SDS011;8154;50.830;12.082;2022-08-19T03:11:52;6.95;;;6.35;;
16099;SDS011;8154;50.830;12.082;2022-08-19T03:14:36;7.32;;;6.80;;
16099;SDS011;8154;50.830;12.082;2022-08-19T03:17:20;7.32;;;6.63;;
16099;SDS011;8154;50.830;12.082;2022-08-19T03:20:05;7.22;;;6.72;;
16099;SDS011;8154;50.830;12.082;2022-08-19T03:22:49;7.18;;;6.57;;
16099;SDS011;8154;50.830;12.082;2022-08-19T03:25:40;7.47;;;6.88;;
16099;SDS011;8154;50.830;12.082;2022-08-19T03:28:27;7.13;;;6.60;;
16099;SDS011;8154;50.830;12.082;2022-08-19T03:31:12;7.72;;;7.03;;
16099;SDS011;8154;50.830;12.082;2022-08-19T03:33:57;7.68;;;7.07;;
16099;SDS011;8154;50.830;12.082;2022-08-19T03:36:41;7.93;;;7.32;;
16099;SDS011;8154;50.830;12.082;2022-08-19T03:39:26;7.18;;;6.68;;
16099;SDS011;8154;50.830;12.082;2022-08-19T03:42:10;7.50;;;7.00;;
16099;SDS011;8154;50.830;12.082;2022-08-19T03:44:55;7.63;;;7.03;;
16099;SDS011;8154;50.830;12.082;2022-08-19T03:47:40;7.50;;;6.90;;
16099;SDS011;8154;50.830;12.082;2022-08-19T03:50:24;7.55;;;6.95;;
16099;SDS011;8154;50.830;12.082;2022-08-19T03:53:09;7.30;;;6.80;;
16099;SDS011;8154;50.830;12.082;2022-08-19T03:55:53;8.10;;;7.40;;
16099;SDS011;8154;50.830;12.082;2022-08-19T03:58:39;7.60;;;7.00;;
16099;SDS011;8154;50.830;12.082;2022-08-19T04:01:24;8.00;;;7.32;;
16099;SDS011;8154;50.830;12.082;2022-08-19T04:04:11;8.38;;;7.78;;
16099;SDS011;8154;50.830;12.082;2022-08-19T04:06:56;9.60;;;8.80;;
16099;SDS011;8154;50.830;12.082;2022-08-19T04:09:40;9.25;;;8.40;;
16099;SDS011;8154;50.830;12.082;2022-08-19T04:12:25;10.27;;;9.48;;
16099;SDS011;8154;50.830;12.082;2022-08-19T04:15:10;8.75;;;8.05;;
16099;SDS011;8154;50.830;12.082;2022-08-19T04:17:55;9.18;;;8.45;;
16099;SDS011;8154;50.830;12.082;2022-08-19T04:20:40;9.75;;;8.88;;
16099;SDS011;8154;50.830;12.082;2022-08-19T04:23:26;8.38;;;7.78;;
16099;SDS011;8154;50.830;12.082;2022-08-19T04:26:12;8.48;;;7.78;;
16099;SDS011;8154;50.830;12.082;2022-08-19T04:29:06;9.57;;;8.75;;
16099;SDS011;8154;50.830;12.082;2022-08-19T04:31:53;9.73;;;8.85;;
16099;SDS011;8154;50.830;12.082;2022-08-19T04:34:39;10.07;;;9.18;;
16099;SDS011;8154;50.830;12.082;2022-08-19T04:37:23;10.88;;;9.85;;
16099;SDS011;8154;50.830;12.082;2022-08-19T04:40:10;10.52;;;9.55;;
16099;SDS011;8154;50.830;12.082;2022-08-19T04:43:14;10.75;;;9.85;;
16099;SDS011;8154;50.830;12.082;2022-08-19T04:46:04;9.68;;;8.80;;
16099;SDS011;8154;50.830;12.082;2022-08-19T04:48:52;9.13;;;8.43;;
16099;SDS011;8154;50.830;12.082;2022-08-19T04:51:39;8.75;;;7.95;;
16099;SDS011;8154;50.830;12.082;2022-08-19T04:54:25;8.63;;;7.93;;
16099;SDS011;8154;50.830;12.082;2022-08-19T04:57:09;8.82;;;8.10;;
16099;SDS011;8154;50.830;12.082;2022-08-19T04:59:54;9.73;;;8.85;;
16099;SDS011;8154;50.830;12.082;2022-08-19T05:02:39;9.25;;;8.45;;
16099;SDS011;8154;50.830;12.082;2022-08-19T05:05:24;8.07;;;7.47;;
16099;SDS011;8154;50.830;12.082;2022-08-19T05:08:08;8.75;;;8.02;;
16099;SDS011;8154;50.830;12.082;2022-08-19T05:10:53;8.20;;;7.60;;
16099;SDS011;8154;50.830;12.082;2022-08-19T05:13:37;8.20;;;7.50;;
16099;SDS011;8154;50.830;12.082;2022-08-19T05:16:23;8.50;;;7.70;;
16099;SDS011;8154;50.830;12.082;2022-08-19T05:19:09;8.43;;;7.72;;
16099;SDS011;8154;50.830;12.082;2022-08-19T05:22:13;8.45;;;7.78;;
16099;SDS011;8154;50.830;12.082;2022-08-19T05:25:19;8.55;;;7.75;;
16099;SDS011;8154;50.830;12.082;2022-08-19T05:28:04;8.30;;;7.63;;
16099;SDS011;8154;50.830;12.082;2022-08-19T05:30:48;8.43;;;7.72;;
16099;SDS011;8154;50.830;12.082;2022-08-19T05:33:34;7.80;;;7.20;;
16099;SDS011;8154;50.830;12.082;2022-08-19T05:36:19;8.10;;;7.50;;
16099;SDS011;8154;50.830;12.082;2022-08-19T05:39:03;8.25;;;7.57;;
16099;SDS011;8154;50.830;12.082;2022-08-19T05:41:49;7.88;;;7.28;;
16099;SDS011;8154;50.830;12.082;2022-08-19T05:44:38;8.25;;;7.55;;
16099;SDS011;8154;50.830;12.082;2022-08-19T05:47:29;8.27;;;7.57;;
16099;SDS011;8154;50.830;12.082;2022-08-19T05:50:14;8.80;;;8.10;;
16099;SDS011;8154;50.830;12.082;2022-08-19T05:52:58;9.50;;;8.70;;
16099;SDS011;8154;50.830;12.082;2022-08-19T05:55:43;9.65;;;8.85;;
16099;SDS011;8154;50.830;12.082;2022-08-19T05:58:27;9.30;;;8.60;;
16099;SDS011;8154;50.830;12.082;2022-08-19T06:01:14;9.23;;;8.43;;
16099;SDS011;8154;50.830;12.082;2022-08-19T06:03:59;8.43;;;7.82;;
16099;SDS011;8154;50.830;12.082;2022-08-19T06:06:45;8.15;;;7.55;;
16099;SDS011;8154;50.830;12.082;2022-08-19T06:09:30;8.90;;;8.30;;
16099;SDS011;8154;50.830;12.082;2022-08-19T06:12:14;8.98;;;8.27;;
16099;SDS011;8154;50.830;12.082;2022-08-19T06:14:58;9.20;;;8.45;;
16099;SDS011;8154;50.830;12.082;2022-08-19T06:17:44;9.25;;;8.45;;
16099;SDS011;8154;50.830;12.082;2022-08-19T06:20:28;8.70;;;8.10;;
16099;SDS011;8154;50.830;12.082;2022-08-19T06:23:13;8.73;;;8.02;;
16099;SDS011;8154;50.830;12.082;2022-08-19T06:25:57;8.75;;;8.05;;
16099;SDS011;8154;50.830;12.082;2022-08-19T06:28:42;8.88;;;8.18;;
16099;SDS011;8154;50.830;12.082;2022-08-19T06:31:30;8.90;;;8.20;;
16099;SDS011;8154;50.830;12.082;2022-08-19T06:34:17;9.00;;;8.30;;
16099;SDS011;8154;50.830;12.082;2022-08-19T06:37:02;8.88;;;8.18;;
16099;SDS011;8154;50.830;12.082;2022-08-19T06:39:48;9.13;;;8.35;;
16099;SDS011;8154;50.830;12.082;2022-08-19T06:42:32;9.30;;;8.40;;
16099;SDS011;8154;50.830;12.082;2022-08-19T06:45:16;8.70;;;8.05;;
16099;SDS011;8154;50.830;12.082;2022-08-19T06:48:01;8.85;;;8.15;;
16099;SDS011;8154;50.830;12.082;2022-08-19T06:50:46;8.50;;;7.70;;
16099;SDS011;8154;50.830;12.082;2022-08-19T06:53:32;9.05;;;8.35;;
16099;SDS011;8154;50.830;12.082;2022-08-19T06:56:18;9.20;;;8.50;;
16099;SDS011;8154;50.830;12.082;2022-08-19T06:59:06;9.07;;;8.27;;
16099;SDS011;8154;50.830;12.082;2022-08-19T07:01:53;9.43;;;8.70;;
16099;SDS011;8154;50.830;12.082;2022-08-19T07:04:39;9.20;;;8.50;;
16099;SDS011;8154;50.830;12.082;2022-08-19T07:07:23;9.57;;;8.77;;
16099;SDS011;8154;50.830;12.082;2022-08-19T07:10:07;9.27;;;8.57;;
16099;SDS011;8154;50.830;12.082;2022-08-19T07:12:52;9.80;;;9.00;;
16099;SDS011;8154;50.830;12.082;2022-08-19T07:15:37;10.07;;;9.27;;
16099;SDS011;8154;50.830;12.082;2022-08-19T07:18:21;9.77;;;8.98;;
16099;SDS011;8154;50.830;12.082;2022-08-19T07:21:07;9.88;;;9.00;;
16099;SDS011;8154;50.830;12.082;2022-08-19T07:23:58;10.02;;;9.23;;
16099;SDS011;8154;50.830;12.082;2022-08-19T07:26:43;9.90;;;9.00;;
16099;SDS011;8154;50.830;12.082;2022-08-19T07:29:29;9.80;;;9.00;;
16099;SDS011;8154;50.830;12.082;2022-08-19T07:32:16;9.45;;;8.75;;
16099;SDS011;8154;50.830;12.082;2022-08-19T07:35:00;9.30;;;8.50;;
16099;SDS011;8154;50.830;12.082;2022-08-19T07:37:46;9.82;;;9.02;;
16099;SDS011;8154;50.830;12.082;2022-08-19T07:40:31;9.95;;;9.15;;
16099;SDS011;8154;50.830;12.082;2022-08-19T07:43:15;9.75;;;8.90;;
16099;SDS011;8154;50.830;12.082;2022-08-19T07:46:00;9.65;;;8.85;;
16099;SDS011;8154;50.830;12.082;2022-08-19T07:48:44;10.77;;;9.88;;
16099;SDS011;8154;50.830;12.082;2022-08-19T07:51:32;10.30;;;9.35;;
16099;SDS011;8154;50.830;12.082;2022-08-19T07:54:18;9.77;;;8.95;;
16099;SDS011;8154;50.830;12.082;2022-08-19T07:57:04;10.15;;;9.25;;
16099;SDS011;8154;50.830;12.082;2022-08-19T07:59:49;9.88;;;9.07;;
16099;SDS011;8154;50.830;12.082;2022-08-19T08:02:33;9.35;;;8.65;;
16099;SDS011;8154;50.830;12.082;2022-08-19T08:05:18;9.70;;;8.90;;
16099;SDS011;8154;50.830;12.082;2022-08-19T08:08:21;9.68;;;8.88;;
16099;SDS011;8154;50.830;12.082;2022-08-19T08:11:23;9.90;;;9.00;;
16099;SDS011;8154;50.830;12.082;2022-08-19T08:14:08;10.05;;;9.15;;
16099;SDS011;8154;50.830;12.082;2022-08-19T08:16:53;9.82;;;8.98;;
16099;SDS011;8154;50.830;12.082;2022-08-19T08:19:38;9.70;;;8.80;;
16099;SDS011;8154;50.830;12.082;2022-08-19T08:22:24;9.30;;;8.50;;
16099;SDS011;8154;50.830;12.082;2022-08-19T08:25:27;9.10;;;8.30;;
16099;SDS011;8154;50.830;12.082;2022-08-19T08:28:12;8.52;;;7.82;;
16099;SDS011;8154;50.830;12.082;2022-08-19T08:30:56;9.32;;;8.52;;
16099;SDS011;8154;50.830;12.082;2022-08-19T08:33:41;9.32;;;8.52;;
16099;SDS011;8154;50.830;12.082;2022-08-19T08:36:25;9.68;;;8.77;;
16099;SDS011;8154;50.830;12.082;2022-08-19T08:39:18;9.13;;;8.32;;
16099;SDS011;8154;50.830;12.082;2022-08-19T08:45:10;8.82;;;8.02;;
16099;SDS011;8154;50.830;12.082;2022-08-19T08:48:01;8.60;;;7.90;;
16099;SDS011;8154;50.830;12.082;2022-08-19T08:50:51;9.10;;;8.30;;
16099;SDS011;8154;50.830;12.082;2022-08-19T08:53:39;9.10;;;8.40;;
16099;SDS011;8154;50.830;12.082;2022-08-19T08:56:26;8.82;;;8.13;;
16099;SDS011;8154;50.830;12.082;2022-08-19T08:59:14;8.98;;;8.10;;
16099;SDS011;8154;50.830;12.082;2022-08-19T09:02:04;8.90;;;8.10;;
16099;SDS011;8154;50.830;12.082;2022-08-19T09:04:48;9.00;;;8.20;;
16099;SDS011;8154;50.830;12.082;2022-08-19T09:07:49;9.35;;;8.57;;
16099;SDS011;8154;50.830;12.082;2022-08-19T09:10:44;8.40;;;7.70;;
16099;SDS011;8154;50.830;12.082;2022-08-19T09:13:36;8.90;;;8.18;;
16099;SDS011;8154;50.830;12.082;2022-08-19T09:16:41;8.77;;;7.97;;
16099;SDS011;8154;50.830;12.082;2022-08-19T09:19:24;8.75;;;8.05;;
16099;SDS011;8154;50.830;12.082;2022-08-19T09:22:09;9.05;;;8.25;;
16099;SDS011;8154;50.830;12.082;2022-08-19T09:24:53;8.93;;;8.20;;
16099;SDS011;8154;50.830;12.082;2022-08-19T09:27:41;8.80;;;8.00;;
16099;SDS011;8154;50.830;12.082;2022-08-19T09:30:27;9.02;;;8.02;;
16099;SDS011;8154;50.830;12.082;2022-08-19T09:33:13;9.27;;;8.32;;
16099;SDS011;8154;50.830;12.082;2022-08-19T09:36:03;8.68;;;7.93;;
16099;SDS011;8154;50.830;12.082;2022-08-19T09:38:50;8.40;;;7.68;;
16099;SDS011;8154;50.830;12.082;2022-08-19T09:41:36;9.80;;;8.80;;
16099;SDS011;8154;50.830;12.082;2022-08-19T09:44:20;9.60;;;8.52;;
16099;SDS011;8154;50.830;12.082;2022-08-19T09:47:05;8.82;;;8.13;;
16099;SDS011;8154;50.830;12.082;2022-08-19T09:49:49;9.40;;;8.60;;
16099;SDS011;8154;50.830;12.082;2022-08-19T09:52:34;9.48;;;8.60;;
16099;SDS011;8154;50.830;12.082;2022-08-19T09:55:19;8.55;;;7.95;;
16099;SDS011;8154;50.830;12.082;2022-08-19T09:58:03;9.07;;;8.35;;
16099;SDS011;8154;50.830;12.082;2022-08-19T10:00:48;9.23;;;7.97;;
16099;SDS011;8154;50.830;12.082;2022-08-19T10:03:33;8.77;;;8.07;;
16099;SDS011;8154;50.830;12.082;2022-08-19T10:06:19;8.50;;;7.80;;
16099;SDS011;8154;50.830;12.082;2022-08-19T10:09:06;8.60;;;7.90;;
16099;SDS011;8154;50.830;12.082;2022-08-19T10:11:52;8.95;;;8.15;;
16099;SDS011;8154;50.830;12.082;2022-08-19T10:14:36;8.95;;;8.05;;
16099;SDS011;8154;50.830;12.082;2022-08-19T10:17:20;8.30;;;7.55;;
16099;SDS011;8154;50.830;12.082;2022-08-19T10:20:05;8.38;;;7.50;;
16099;SDS011;8154;50.830;12.082;2022-08-19T10:22:50;7.82;;;7.13;;
16099;SDS011;8154;50.830;12.082;2022-08-19T10:25:34;8.10;;;7.30;;
16099;SDS011;8154;50.830;12.082;2022-08-19T10:28:18;7.55;;;6.95;;
16099;SDS011;8154;50.830;12.082;2022-08-19T10:31:07;7.28;;;6.68;;
16099;SDS011;8154;50.830;12.082;2022-08-19T10:33:52;7.28;;;6.68;;
16099;SDS011;8154;50.830;12.082;2022-08-19T10:36:41;7.28;;;6.68;;
16099;SDS011;8154;50.830;12.082;2022-08-19T10:39:28;6.90;;;6.30;;
16099;SDS011;8154;50.830;12.082;2022-08-19T10:42:14;6.80;;;6.15;;
16099;SDS011;8154;50.830;12.082;2022-08-19T10:45:00;7.15;;;6.43;;
16099;SDS011;8154;50.830;12.082;2022-08-19T10:47:44;6.40;;;5.90;;
16099;SDS011;8154;50.830;12.082;2022-08-19T10:50:30;6.22;;;5.72;;
16099;SDS011;8154;50.830;12.082;2022-08-19T10:53:33;6.05;;;5.55;;
16099;SDS011;8154;50.830;12.082;2022-08-19T10:56:17;6.38;;;5.78;;
16099;SDS011;8154;50.830;12.082;2022-08-19T10:59:25;5.88;;;5.38;;
16099;SDS011;8154;50.830;12.082;2022-08-19T11:02:13;5.68;;;5.10;;
16099;SDS011;8154;50.830;12.082;2022-08-19T11:04:57;5.55;;;5.15;;
16099;SDS011;8154;50.830;12.082;2022-08-19T11:07:41;5.68;;;5.18;;
16099;SDS011;8154;50.830;12.082;2022-08-19T11:10:26;5.45;;;5.00;;
16099;SDS011;8154;50.830;12.082;2022-08-19T11:13:11;5.00;;;4.70;;
16099;SDS011;8154;50.830;12.082;2022-08-19T11:15:56;5.15;;;4.75;;
16099;SDS011;8154;50.830;12.082;2022-08-19T11:18:43;5.03;;;4.63;;
16099;SDS011;8154;50.830;12.082;2022-08-19T11:21:34;4.82;;;4.45;;
16099;SDS011;8154;50.830;12.082;2022-08-19T11:24:22;5.10;;;4.70;;
16099;SDS011;8154;50.830;12.082;2022-08-19T11:27:08;4.70;;;4.30;;
16099;SDS011;8154;50.830;12.082;2022-08-19T11:29:54;4.70;;;4.30;;
16099;SDS011;8154;50.830;12.082;2022-08-19T11:32:38;4.68;;;4.28;;
16099;SDS011;8154;50.830;12.082;2022-08-19T11:35:23;4.43;;;4.13;;
16099;SDS011;8154;50.830;12.082;2022-08-19T11:38:07;4.60;;;4.20;;
16099;SDS011;8154;50.830;12.082;2022-08-19T11:40:55;4.40;;;4.00;;
16099;SDS011;8154;50.830;12.082;2022-08-19T11:43:43;4.32;;;3.92;;
16099;SDS011;8154;50.830;12.082;2022-08-19T11:46:28;4.05;;;3.75;;
16099;SDS011;8154;50.830;12.082;2022-08-19T11:49:14;3.83;;;3.53;;
16099;SDS011;8154;50.830;12.082;2022-08-19T11:51:59;3.88;;;3.58;;
16099;SDS011;8154;50.830;12.082;2022-08-19T11:54:44;3.78;;;3.47;;
16099;SDS011;8154;50.830;12.082;2022-08-19T11:57:29;4.00;;;3.70;;
16099;SDS011;8154;50.830;12.082;2022-08-19T12:00:13;3.45;;;3.25;;
16099;SDS011;8154;50.830;12.082;2022-08-19T12:02:58;3.30;;;3.10;;
16099;SDS011;8154;50.830;12.082;2022-08-19T12:05:42;3.45;;;3.20;;
16099;SDS011;8154;50.830;12.082;2022-08-19T12:08:26;3.50;;;3.20;;
16099;SDS011;8154;50.830;12.082;2022-08-19T12:11:11;4.70;;;3.30;;
16099;SDS011;8154;50.830;12.082;2022-08-19T12:13:57;3.50;;;3.20;;
16099;SDS011;8154;50.830;12.082;2022-08-19T12:16:43;3.35;;;3.08;;
16099;SDS011;8154;50.830;12.082;2022-08-19T12:19:30;3.25;;;3.00;;
16099;SDS011;8154;50.830;12.082;2022-08-19T12:22:14;3.30;;;3.00;;
16099;SDS011;8154;50.830;12.082;2022-08-19T12:24:58;3.10;;;2.90;;
16099;SDS011;8154;50.830;12.082;2022-08-19T12:27:44;3.17;;;2.97;;
16099;SDS011;8154;50.830;12.082;2022-08-19T12:30:29;3.33;;;2.80;;
16099;SDS011;8154;50.830;12.082;2022-08-19T12:33:13;3.10;;;2.90;;
16099;SDS011;8154;50.830;12.082;2022-08-19T12:36:03;3.03;;;2.83;;
16099;SDS011;8154;50.830;12.082;2022-08-19T12:38:49;3.13;;;2.83;;
16099;SDS011;8154;50.830;12.082;2022-08-19T12:41:34;4.47;;;3.03;;
16099;SDS011;8154;50.830;12.082;2022-08-19T12:44:18;3.00;;;2.80;;
16099;SDS011;8154;50.830;12.082;2022-08-19T12:47:03;2.88;;;2.67;;
16099;SDS011;8154;50.830;12.082;2022-08-19T12:49:48;3.00;;;2.70;;
16099;SDS011;8154;50.830;12.082;2022-08-19T12:52:33;2.75;;;2.55;;
16099;SDS011;8154;50.830;12.082;2022-08-19T12:55:20;3.00;;;2.80;;
16099;SDS011;8154;50.830;12.082;2022-08-19T12:58:05;2.80;;;2.60;;
16099;SDS011;8154;50.830;12.082;2022-08-19T13:00:49;3.10;;;2.80;;
16099;SDS011;8154;50.830;12.082;2022-08-19T13:03:34;2.78;;;2.58;;
16099;SDS011;8154;50.830;12.082;2022-08-19T13:06:18;2.60;;;2.40;;
16099;SDS011;8154;50.830;12.082;2022-08-19T13:09:03;2.67;;;2.47;;
16099;SDS011;8154;50.830;12.082;2022-08-19T13:11:48;3.05;;;2.60;;
16099;SDS011;8154;50.830;12.082;2022-08-19T13:14:33;2.70;;;2.50;;
16099;SDS011;8154;50.830;12.082;2022-08-19T13:17:19;2.65;;;2.45;;
16099;SDS011;8154;50.830;12.082;2022-08-19T13:20:04;2.67;;;2.47;;
16099;SDS011;8154;50.830;12.082;2022-08-19T13:22:51;2.53;;;2.33;;
16099;SDS011;8154;50.830;12.082;2022-08-19T13:25:35;2.50;;;2.30;;
16099;SDS011;8154;50.830;12.082;2022-08-19T13:28:20;2.60;;;2.40;;
16099;SDS011;8154;50.830;12.082;2022-08-19T13:31:04;3.00;;;2.70;;
16099;SDS011;8154;50.830;12.082;2022-08-19T13:34:07;2.67;;;2.47;;
16099;SDS011;8154;50.830;12.082;2022-08-19T13:36:52;3.00;;;2.50;;
16099;SDS011;8154;50.830;12.082;2022-08-19T13:39:36;2.63;;;2.42;;
16099;SDS011;8154;50.830;12.082;2022-08-19T13:42:21;2.20;;;2.10;;
16099;SDS011;8154;50.830;12.082;2022-08-19T13:45:05;2.70;;;2.50;;
16099;SDS011;8154;50.830;12.082;2022-08-19T13:47:51;3.53;;;2.50;;
16099;SDS011;8154;50.830;12.082;2022-08-19T13:50:39;2.67;;;2.42;;
16099;SDS011;8154;50.830;12.082;2022-08-19T13:53:25;2.60;;;2.40;;
16099;SDS011;8154;50.830;12.082;2022-08-19T13:56:10;2.70;;;2.50;;
16099;SDS011;8154;50.830;12.082;2022-08-19T13:58:59;2.33;;;2.20;;
16099;SDS011;8154;50.830;12.082;2022-08-19T14:01:43;2.45;;;2.25;;
16099;SDS011;8154;50.830;12.082;2022-08-19T14:04:28;2.40;;;2.30;;
16099;SDS011;8154;50.830;12.082;2022-08-19T14:07:12;2.40;;;2.30;;
16099;SDS011;8154;50.830;12.082;2022-08-19T14:09:58;2.60;;;2.40;;
16099;SDS011;8154;50.830;12.082;2022-08-19T14:12:42;2.70;;;2.50;;
16099;SDS011;8154;50.830;12.082;2022-08-19T14:15:27;2.50;;;2.30;;
16099;SDS011;8154;50.830;12.082;2022-08-19T14:18:12;2.55;;;2.38;;
16099;SDS011;8154;50.830;12.082;2022-08-19T14:20:56;3.13;;;2.70;;
16099;SDS011;8154;50.830;12.082;2022-08-19T14:23:41;2.40;;;2.30;;
16099;SDS011;8154;50.830;12.082;2022-08-19T14:26:24;2.65;;;2.45;;
16099;SDS011;8154;50.830;12.082;2022-08-19T14:29:09;2.65;;;2.45;;
16099;SDS011;8154;50.830;12.082;2022-08-19T14:31:54;2.58;;;2.38;;
16099;SDS011;8154;50.830;12.082;2022-08-19T14:34:39;2.65;;;2.45;;
16099;SDS011;8154;50.830;12.082;2022-08-19T14:37:23;2.80;;;2.60;;
16099;SDS011;8154;50.830;12.082;2022-08-19T14:40:08;2.60;;;2.40;;
16099;SDS011;8154;50.830;12.082;2022-08-19T14:42:53;3.83;;;2.42;;
16099;SDS011;8154;50.830;12.082;2022-08-19T14:45:47;2.60;;;2.40;;
16099;SDS011;8154;50.830;12.082;2022-08-19T14:48:31;2.50;;;2.30;;
16099;SDS011;8154;50.830;12.082;2022-08-19T14:51:17;2.88;;;2.67;;
16099;SDS011;8154;50.830;12.082;2022-08-19T14:54:02;2.80;;;2.60;;
16099;SDS011;8154;50.830;12.082;2022-08-19T14:56:47;2.40;;;2.20;;
16099;SDS011;8154;50.830;12.082;2022-08-19T14:59:32;2.47;;;2.33;;
16099;SDS011;8154;50.830;12.082;2022-08-19T15:02:18;3.22;;;2.72;;
16099;SDS011;8154;50.830;12.082;2022-08-19T15:05:04;2.40;;;2.20;;
16099;SDS011;8154;50.830;12.082;2022-08-19T15:07:49;2.47;;;2.38;;
16099;SDS011;8154;50.830;12.082;2022-08-19T15:10:33;2.70;;;2.50;;
16099;SDS011;8154;50.830;12.082;2022-08-19T15:13:18;2.75;;;2.55;;
16099;SDS011;8154;50.830;12.082;2022-08-19T15:16:02;2.80;;;2.60;;
16099;SDS011;8154;50.830;12.082;2022-08-19T15:18:51;2.60;;;2.40;;
16099;SDS011;8154;50.830;12.082;2022-08-19T15:21:38;2.67;;;2.47;;
16099;SDS011;8154;50.830;12.082;2022-08-19T15:24:22;2.70;;;2.50;;
16099;SDS011;8154;50.830;12.082;2022-08-19T15:27:09;2.47;;;2.30;;
16099;SDS011;8154;50.830;12.082;2022-08-19T15:29:53;3.08;;;2.70;;
16099;SDS011;8154;50.830;12.082;2022-08-19T15:32:37;2.72;;;2.53;;
16099;SDS011;8154;50.830;12.082;2022-08-19T15:35:23;2.63;;;2.45;;
16099;SDS011;8154;50.830;12.082;2022-08-19T15:38:08;2.90;;;2.60;;
16099;SDS011;8154;50.830;12.082;2022-08-19T15:40:54;2.38;;;2.28;;
16099;SDS011;8154;50.830;12.082;2022-08-19T15:44:00;2.70;;;2.50;;
16099;SDS011;8154;50.830;12.082;2022-08-19T15:46:47;2.70;;;2.50;;
16099;SDS011;8154;50.830;12.082;2022-08-19T15:49:32;2.80;;;2.60;;
16099;SDS011;8154;50.830;12.082;2022-08-19T15:52:18;2.80;;;2.60;;
16099;SDS011;8154;50.830;12.082;2022-08-19T15:55:04;2.70;;;2.50;;
16099;SDS011;8154;50.830;12.082;2022-08-19T15:57:50;2.72;;;2.53;;
16099;SDS011;8154;50.830;12.082;2022-08-19T16:00:53;3.15;;;2.47;;
16099;SDS011;8154;50.830;12.082;2022-08-19T16:03:57;2.80;;;2.60;;
16099;SDS011;8154;50.830;12.082;2022-08-19T16:07:02;2.92;;;2.72;;
16099;SDS011;8154;50.830;12.082;2022-08-19T16:09:46;2.70;;;2.50;;
16099;SDS011;8154;50.830;12.082;2022-08-19T16:12:31;3.05;;;2.85;;
16099;SDS011;8154;50.830;12.082;2022-08-19T16:15:15;2.90;;;2.70;;
16099;SDS011;8154;50.830;12.082;2022-08-19T16:18:00;2.80;;;2.60;;
16099;SDS011;8154;50.830;12.082;2022-08-19T16:20:45;2.60;;;2.40;;
16099;SDS011;8154;50.830;12.082;2022-08-19T16:23:30;2.97;;;2.70;;
16099;SDS011;8154;50.830;12.082;2022-08-19T16:26:14;2.78;;;2.58;;
16099;SDS011;8154;50.830;12.082;2022-08-19T16:29:01;2.70;;;2.50;;
16099;SDS011;8154;50.830;12.082;2022-08-19T16:31:47;3.25;;;2.75;;
16099;SDS011;8154;50.830;12.082;2022-08-19T16:34:32;3.13;;;2.65;;
16099;SDS011;8154;50.830;12.082;2022-08-19T16:37:17;3.05;;;2.85;;
16099;SDS011;8154;50.830;12.082;2022-08-19T16:40:03;3.00;;;2.80;;
16099;SDS011;8154;50.830;12.082;2022-08-19T16:42:48;3.17;;;2.90;;
16099;SDS011;8154;50.830;12.082;2022-08-19T16:45:32;2.88;;;2.67;;
16099;SDS011;8154;50.830;12.082;2022-08-19T16:48:16;2.80;;;2.60;;